Time;durP1;ratioP1;P1;durP2;ratioP2;P2;SDS_P1;SDS_P2;PMS_P1;PMS_P2;Temp;Humidity;BMP_temperature;BMP_pressure;BME280_temperature;BME280_humidity;BME280_pressure;Samples;Min_cycle;Max_cycle;Signal;HPM_P1;HPM_P2
2022/03/03 00:01:22;;;;;;;70.97;53.50;;;16.60;52.30;;;;;;4989322;28;91221;-72
2022/03/03 00:03:48;;;;;;;68.63;53.13;;;16.50;52.30;;;;;;4990873;28;92553;-73
2022/03/03 00:06:14;;;;;;;69.90;53.92;;;16.50;53.00;;;;;;4992728;28;89886;-72
2022/03/03 00:08:39;;;;;;;66.55;52.38;;;16.40;52.30;;;;;;4979246;28;90729;-72
2022/03/03 00:11:05;;;;;;;68.90;53.20;;;16.50;52.50;;;;;;4992566;28;90998;-72
2022/03/03 00:13:30;;;;;;;69.47;53.25;;;16.40;52.40;;;;;;4990947;28;89781;-73
2022/03/03 00:15:56;;;;;;;68.90;52.80;;;16.40;52.50;;;;;;4994194;28;89497;-74
2022/03/03 00:18:22;;;;;;;68.43;53.13;;;16.40;52.60;;;;;;4996297;28;90534;-72
2022/03/03 00:20:47;;;;;;;67.80;52.90;;;16.30;52.50;;;;;;4988139;28;90069;-72
2022/03/03 00:23:13;;;;;;;67.93;52.63;;;16.30;52.60;;;;;;4994707;28;91387;-74
2022/03/03 00:25:39;;;;;;;68.18;53.42;;;16.30;52.60;;;;;;4987020;28;89757;-72
2022/03/03 00:28:05;;;;;;;65.75;52.10;;;16.30;52.60;;;;;;4997467;28;91588;-73
2022/03/03 00:30:31;;;;;;;67.60;52.22;;;16.20;52.60;;;;;;4993960;28;91040;-72
2022/03/03 00:32:56;;;;;;;68.82;53.00;;;16.20;52.70;;;;;;4992388;28;90103;-72
2022/03/03 00:35:22;;;;;;;69.53;53.63;;;16.20;52.70;;;;;;4990601;28;93158;-73
2022/03/03 00:37:47;;;;;;;66.95;52.78;;;16.20;52.80;;;;;;4992822;28;90247;-72
2022/03/03 00:40:13;;;;;;;68.47;53.47;;;16.10;52.80;;;;;;4992839;28;89436;-73
2022/03/03 00:42:39;;;;;;;69.28;53.28;;;16.10;53.20;;;;;;4997342;28;89838;-73
2022/03/03 00:45:05;;;;;;;67.80;53.35;;;16.10;53.40;;;;;;4990529;28;90762;-73
2022/03/03 00:47:31;;;;;;;68.82;53.70;;;16.10;53.20;;;;;;4990460;28;93156;-72
2022/03/03 00:49:57;;;;;;;73.10;54.03;;;16.20;53.30;;;;;;4981686;28;92172;-72
2022/03/03 00:52:23;;;;;;;70.43;53.25;;;16.20;53.20;;;;;;4990580;28;89981;-72
2022/03/03 00:54:48;;;;;;;69.85;53.65;;;16.30;53.20;;;;;;4995188;28;90076;-72
2022/03/03 00:57:14;;;;;;;67.80;53.42;;;16.30;53.00;;;;;;4992715;28;90391;-73
2022/03/03 00:59:40;;;;;;;68.57;53.40;;;16.40;52.90;;;;;;4990558;28;96751;-72
2022/03/03 01:02:05;;;;;;;68.65;52.78;;;16.40;52.80;;;;;;4987742;28;89796;-72
2022/03/03 01:04:31;;;;;;;68.07;53.47;;;16.40;52.60;;;;;;4991895;28;89163;-72
2022/03/03 01:06:56;;;;;;;67.47;53.38;;;16.50;52.60;;;;;;4994849;28;95924;-72
2022/03/03 01:09:22;;;;;;;67.53;53.03;;;16.60;52.60;;;;;;4993054;28;94172;-72
2022/03/03 01:11:48;;;;;;;67.15;53.20;;;16.60;52.50;;;;;;4986997;28;90766;-72
2022/03/03 01:14:14;;;;;;;67.65;53.35;;;16.60;52.40;;;;;;4993049;28;90687;-73
2022/03/03 01:16:39;;;;;;;67.40;52.83;;;16.60;52.30;;;;;;4997236;28;90938;-73
2022/03/03 01:19:05;;;;;;;68.18;53.88;;;16.70;52.20;;;;;;4988145;28;95498;-73
2022/03/03 01:21:31;;;;;;;68.45;53.42;;;16.70;52.00;;;;;;4994411;28;89814;-72
2022/03/03 01:23:57;;;;;;;68.00;53.17;;;16.70;52.00;;;;;;4984307;28;89933;-73
2022/03/03 01:26:23;;;;;;;69.57;53.40;;;16.70;51.80;;;;;;4996129;28;90310;-73
2022/03/03 01:28:49;;;;;;;66.90;53.13;;;16.70;51.90;;;;;;4992118;28;89729;-73
2022/03/03 01:31:14;;;;;;;68.15;53.58;;;16.70;51.80;;;;;;4987122;28;89950;-72
2022/03/03 01:33:40;;;;;;;67.57;52.85;;;16.70;51.80;;;;;;4991731;28;89973;-72
2022/03/03 01:36:05;;;;;;;67.55;53.10;;;16.70;51.70;;;;;;4987308;28;91394;-72
2022/03/03 01:38:31;;;;;;;70.00;53.75;;;16.70;51.70;;;;;;4997997;28;90183;-73
2022/03/03 01:40:57;;;;;;;68.15;52.90;;;16.70;51.70;;;;;;4985719;28;90926;-73
2022/03/03 01:43:22;;;;;;;67.03;53.05;;;16.60;51.70;;;;;;4992164;28;89582;-72
2022/03/03 01:45:48;;;;;;;66.90;52.60;;;16.60;51.80;;;;;;4989937;28;91797;-73
2022/03/03 01:48:14;;;;;;;67.10;52.47;;;16.60;51.70;;;;;;4991393;27;91055;-73
2022/03/03 01:50:39;;;;;;;70.22;53.42;;;16.60;51.80;;;;;;5002090;27;90121;-72
2022/03/03 01:53:05;;;;;;;68.25;52.95;;;16.60;51.70;;;;;;4992003;28;89294;-72
2022/03/03 01:55:32;;;;;;;67.03;52.40;;;16.50;51.90;;;;;;4994220;28;91253;-73
2022/03/03 01:58:01;;;;;;;66.70;52.30;;;16.50;51.90;;;;;;4994432;28;91403;-72
2022/03/03 02:00:27;;;;;;;68.90;53.80;;;16.50;51.90;;;;;;4991197;28;90790;-73
2022/03/03 02:02:52;;;;;;;68.15;53.05;;;16.50;52.00;;;;;;4991536;28;90383;-73
2022/03/03 02:05:18;;;;;;;65.68;51.75;;;16.40;51.90;;;;;;4993819;28;90710;-72
2022/03/03 02:07:44;;;;;;;69.15;53.67;;;16.40;51.90;;;;;;4988096;28;91115;-72
2022/03/03 02:10:10;;;;;;;69.68;53.28;;;16.40;52.10;;;;;;4985886;28;90365;-72
2022/03/03 02:12:35;;;;;;;68.15;53.17;;;16.40;52.10;;;;;;4991860;28;89852;-73
2022/03/03 02:15:01;;;;;;;67.53;52.97;;;16.40;52.00;;;;;;4990119;28;89938;-72
2022/03/03 02:17:27;;;;;;;68.97;53.45;;;16.30;52.10;;;;;;4989826;28;91817;-73
2022/03/03 02:19:52;;;;;;;68.43;53.50;;;16.30;52.00;;;;;;4989143;28;90033;-73
2022/03/03 02:22:18;;;;;;;67.22;53.05;;;16.30;52.10;;;;;;4991186;28;90066;-73
2022/03/03 02:24:44;;;;;;;67.00;53.20;;;16.30;52.10;;;;;;4987425;28;91526;-73
2022/03/03 02:27:10;;;;;;;67.03;52.67;;;16.20;52.20;;;;;;4988642;28;90933;-73
2022/03/03 02:29:37;;;;;;;66.78;52.67;;;16.20;52.20;;;;;;4992660;28;90569;-73
2022/03/03 02:32:05;;;;;;;67.45;53.20;;;16.20;52.20;;;;;;4995896;28;90370;-73
2022/03/03 02:34:31;;;;;;;67.57;53.50;;;16.10;52.30;;;;;;4982946;28;92414;-72
2022/03/03 02:36:57;;;;;;;67.10;52.60;;;16.10;52.30;;;;;;4988110;28;92165;-73
2022/03/03 02:39:22;;;;;;;66.88;52.63;;;16.10;52.30;;;;;;4994466;28;89951;-72
2022/03/03 02:41:48;;;;;;;67.18;52.75;;;16.10;52.30;;;;;;4993957;28;90971;-72
2022/03/03 02:44:14;;;;;;;70.50;53.50;;;16.10;52.40;;;;;;4993689;28;89836;-73
2022/03/03 02:46:40;;;;;;;68.40;52.88;;;16.00;52.30;;;;;;4990476;28;90963;-72
2022/03/03 02:49:05;;;;;;;69.00;53.38;;;16.00;52.40;;;;;;4982044;28;90860;-72
2022/03/03 02:51:31;;;;;;;67.22;52.45;;;16.00;52.30;;;;;;4991995;28;90111;-72
2022/03/03 02:53:57;;;;;;;68.20;53.20;;;16.00;52.40;;;;;;4991499;28;91129;-72
2022/03/03 02:56:23;;;;;;;68.65;52.60;;;16.00;52.60;;;;;;4991570;28;89386;-72
2022/03/03 02:58:49;;;;;;;66.93;53.03;;;15.90;52.50;;;;;;4991658;28;89796;-73
2022/03/03 03:01:15;;;;;;;69.10;53.58;;;15.90;52.50;;;;;;4991997;28;90546;-73
2022/03/03 03:03:40;;;;;;;67.10;52.88;;;15.90;52.40;;;;;;4986443;28;92481;-72
2022/03/03 03:06:06;;;;;;;67.25;53.05;;;15.90;52.60;;;;;;4996093;28;89093;-72
2022/03/03 03:08:33;;;;;;;66.97;52.70;;;15.80;52.60;;;;;;4984864;28;89772;-73
2022/03/03 03:10:58;;;;;;;67.70;53.33;;;15.80;52.70;;;;;;4990994;28;89736;-72
2022/03/03 03:13:24;;;;;;;68.82;53.45;;;15.80;52.70;;;;;;4990610;28;90835;-73
2022/03/03 03:15:49;;;;;;;67.63;53.33;;;15.80;52.70;;;;;;4991602;28;91764;-73
2022/03/03 03:18:17;;;;;;;68.72;53.53;;;15.80;52.80;;;;;;4986267;28;89742;-73
2022/03/03 03:20:46;;;;;;;69.32;53.72;;;15.80;52.80;;;;;;4994763;28;94661;-73
2022/03/03 03:23:15;;;;;;;65.68;52.65;;;15.80;52.80;;;;;;4991133;28;91292;-73
2022/03/03 03:25:43;;;;;;;66.72;52.53;;;15.80;52.70;;;;;;4988753;28;98736;-72
2022/03/03 03:28:13;;;;;;;67.75;53.25;;;15.90;52.70;;;;;;4989978;28;91812;-72
2022/03/03 03:30:40;;;;;;;67.55;53.40;;;15.90;52.60;;;;;;4989176;28;89886;-74
2022/03/03 03:33:06;;;;;;;66.47;52.45;;;16.00;52.70;;;;;;4990130;28;89965;-73
2022/03/03 03:35:32;;;;;;;66.72;52.15;;;16.00;52.50;;;;;;4983404;28;90747;-73
2022/03/03 03:37:58;;;;;;;67.32;53.00;;;16.00;52.30;;;;;;4993304;28;90914;-73
2022/03/03 03:40:24;;;;;;;67.63;53.05;;;16.10;52.40;;;;;;4992181;28;90143;-73
2022/03/03 03:42:49;;;;;;;66.60;53.03;;;16.00;52.10;;;;;;4992813;28;90037;-73
2022/03/03 03:45:16;;;;;;;69.95;53.13;;;16.10;52.20;;;;;;4996412;28;90492;-74
2022/03/03 03:47:42;;;;;;;68.47;52.95;;;16.10;52.20;;;;;;4992687;28;89842;-73
2022/03/03 03:50:09;;;;;;;65.28;52.13;;;16.00;52.10;;;;;;4993440;28;90005;-73
2022/03/03 03:52:36;;;;;;;67.07;52.50;;;16.10;52.20;;;;;;4991243;28;90585;-74
2022/03/03 03:55:06;;;;;;;67.68;53.47;;;16.10;52.00;;;;;;5000133;27;90750;-73
2022/03/03 03:57:32;;;;;;;66.45;52.92;;;16.10;52.10;;;;;;4998303;28;89636;-73
2022/03/03 03:59:58;;;;;;;67.45;52.88;;;16.00;52.00;;;;;;4990721;28;96982;-73
2022/03/03 04:02:23;;;;;;;68.45;53.72;;;16.10;52.10;;;;;;4986057;28;91308;-73
2022/03/03 04:04:49;;;;;;;67.35;53.30;;;16.00;52.10;;;;;;4992277;28;89774;-73
2022/03/03 04:07:15;;;;;;;68.72;53.33;;;16.00;52.00;;;;;;5000149;28;89832;-73
2022/03/03 04:09:40;;;;;;;67.40;53.42;;;16.00;52.10;;;;;;4990161;28;92212;-73
2022/03/03 04:12:07;;;;;;;66.88;53.35;;;15.90;52.00;;;;;;4992114;28;92271;-73
2022/03/03 04:14:32;;;;;;;67.18;52.42;;;15.90;52.10;;;;;;4989945;28;93534;-73
2022/03/03 04:16:58;;;;;;;68.15;52.78;;;15.90;52.20;;;;;;4990564;28;91623;-73
2022/03/03 04:19:24;;;;;;;66.70;53.35;;;15.90;52.20;;;;;;4990462;28;89123;-73
2022/03/03 04:21:50;;;;;;;67.72;53.30;;;15.80;52.10;;;;;;4987478;28;89874;-74
2022/03/03 04:24:15;;;;;;;65.35;52.75;;;15.80;52.20;;;;;;4995073;28;89755;-73
2022/03/03 04:26:41;;;;;;;67.55;53.05;;;15.90;52.30;;;;;;4995446;28;90983;-73
2022/03/03 04:29:07;;;;;;;69.03;53.28;;;15.80;52.30;;;;;;4996292;28;91159;-73
2022/03/03 04:31:32;;;;;;;65.90;52.70;;;15.80;52.30;;;;;;4996561;28;90453;-74
2022/03/03 04:33:58;;;;;;;66.45;52.55;;;15.80;52.40;;;;;;4986584;28;89991;-73
2022/03/03 04:36:24;;;;;;;68.78;53.47;;;15.70;52.30;;;;;;4992541;28;89997;-73
2022/03/03 04:38:50;;;;;;;68.00;53.85;;;15.70;52.30;;;;;;4994824;28;90024;-73
2022/03/03 04:41:19;;;;;;;67.50;52.50;;;15.70;52.30;;;;;;4994529;28;91680;-73
2022/03/03 04:43:45;;;;;;;66.25;52.20;;;15.70;52.40;;;;;;4991879;28;91369;-73
2022/03/03 04:46:11;;;;;;;65.97;52.30;;;15.70;52.40;;;;;;4993876;28;90352;-73
2022/03/03 04:48:36;;;;;;;67.25;53.00;;;15.60;52.50;;;;;;4989039;28;91440;-73
2022/03/03 04:51:02;;;;;;;67.85;53.17;;;15.60;52.80;;;;;;4983371;28;91113;-73
2022/03/03 04:53:29;;;;;;;67.40;52.70;;;15.50;52.90;;;;;;4993502;28;91318;-74
2022/03/03 04:55:55;;;;;;;66.80;52.25;;;15.60;52.90;;;;;;4995467;28;89447;-73
2022/03/03 04:58:21;;;;;;;65.18;51.88;;;15.60;53.00;;;;;;4992934;28;89722;-73
2022/03/03 05:00:47;;;;;;;65.35;51.42;;;15.70;52.90;;;;;;4988789;28;90772;-75
2022/03/03 05:03:13;;;;;;;65.75;52.13;;;15.70;52.70;;;;;;4989674;28;90624;-73
2022/03/03 05:05:39;;;;;;;67.45;52.83;;;15.70;52.70;;;;;;4996532;28;89930;-73
2022/03/03 05:08:05;;;;;;;65.95;52.15;;;15.80;52.70;;;;;;4990168;28;90022;-73
2022/03/03 05:10:31;;;;;;;65.47;51.83;;;15.80;52.60;;;;;;4995261;28;89583;-73
2022/03/03 05:12:57;;;;;;;65.88;52.10;;;15.90;52.50;;;;;;4998300;28;89923;-73
2022/03/03 05:15:23;;;;;;;65.78;51.75;;;15.90;52.60;;;;;;4993159;28;90988;-73
2022/03/03 05:17:49;;;;;;;64.57;51.58;;;16.00;52.50;;;;;;4996213;28;89876;-73
2022/03/03 05:20:15;;;;;;;67.53;51.97;;;16.00;52.40;;;;;;5006000;27;91977;-73
2022/03/03 05:22:41;;;;;;;66.82;52.13;;;16.10;52.40;;;;;;4990492;28;92003;-73
2022/03/03 05:25:08;;;;;;;66.13;52.33;;;16.10;52.40;;;;;;4987784;28;90597;-73
2022/03/03 05:27:34;;;;;;;66.45;51.92;;;16.20;52.20;;;;;;4992511;28;92922;-72
2022/03/03 05:30:00;;;;;;;66.65;51.90;;;16.30;52.20;;;;;;4986165;28;90545;-73
2022/03/03 05:32:26;;;;;;;64.43;51.10;;;16.30;52.10;;;;;;4997295;28;92838;-73
2022/03/03 05:34:51;;;;;;;66.57;51.83;;;16.30;51.90;;;;;;4991742;28;89349;-73
2022/03/03 05:37:22;;;;;;;65.65;51.67;;;16.30;52.00;;;;;;4995379;28;91513;-74
2022/03/03 05:39:47;;;;;;;67.30;51.83;;;16.40;51.90;;;;;;4989185;28;91443;-73
2022/03/03 05:42:13;;;;;;;65.35;51.20;;;16.40;52.00;;;;;;4990567;28;91620;-73
2022/03/03 05:44:39;;;;;;;65.63;51.95;;;16.50;52.20;;;;;;5000127;28;90061;-73
2022/03/03 05:47:06;;;;;;;64.93;51.60;;;16.50;51.80;;;;;;4993673;28;89832;-73
2022/03/03 05:49:32;;;;;;;65.28;52.15;;;16.50;51.80;;;;;;4986793;28;91720;-73
2022/03/03 05:51:58;;;;;;;66.40;51.83;;;16.60;51.60;;;;;;4994773;28;89361;-73
2022/03/03 05:54:24;;;;;;;66.70;51.65;;;16.60;51.50;;;;;;4997986;28;89668;-73
2022/03/03 05:56:53;;;;;;;66.40;51.75;;;16.60;51.60;;;;;;4989832;28;89054;-73
2022/03/03 05:59:22;;;;;;;65.18;51.45;;;16.70;51.50;;;;;;4996552;28;91932;-73
2022/03/03 06:01:49;;;;;;;67.20;51.70;;;16.70;52.10;;;;;;4981997;28;90148;-72
2022/03/03 06:04:15;;;;;;;64.88;51.45;;;16.70;51.50;;;;;;4986967;28;94799;-74
2022/03/03 06:06:52;;;;;;;66.68;51.45;;;16.70;51.40;;;;;;4988657;28;93944;-75
2022/03/03 06:09:24;;;;;;;66.35;51.40;;;16.80;51.50;;;;;;4981697;28;92325;-74
2022/03/03 06:11:56;;;;;;;67.82;51.75;;;16.80;51.50;;;;;;4985834;28;91868;-77
2022/03/03 06:14:37;;;;;;;66.07;52.22;;;16.80;51.60;;;;;;4969327;28;91303;-74
2022/03/03 06:17:04;;;;;;;67.78;52.10;;;16.80;51.30;;;;;;4988457;28;89802;-73
2022/03/03 06:19:33;;;;;;;65.35;51.72;;;16.90;51.40;;;;;;4989348;28;89697;-74
2022/03/03 06:21:59;;;;;;;67.95;52.40;;;16.90;51.10;;;;;;4984990;28;91680;-74
2022/03/03 06:24:24;;;;;;;67.28;51.67;;;16.90;51.10;;;;;;4990337;28;91134;-74
2022/03/03 06:26:50;;;;;;;66.43;51.58;;;16.90;51.10;;;;;;4987344;28;92140;-73
2022/03/03 06:29:16;;;;;;;65.80;51.40;;;16.90;51.00;;;;;;5004091;27;93521;-71
2022/03/03 06:31:41;;;;;;;65.97;51.55;;;16.90;51.00;;;;;;4982305;28;90112;-72
2022/03/03 06:34:07;;;;;;;65.95;51.78;;;16.90;51.00;;;;;;4989469;27;90524;-74
2022/03/03 06:36:33;;;;;;;67.95;51.95;;;16.90;51.10;;;;;;4983277;28;90435;-72
2022/03/03 06:38:59;;;;;;;67.63;51.97;;;16.90;51.00;;;;;;4990867;28;91787;-73
2022/03/03 06:41:26;;;;;;;66.45;51.38;;;17.00;51.00;;;;;;4982458;28;91848;-69
2022/03/03 06:43:52;;;;;;;66.78;51.42;;;17.00;50.90;;;;;;4987746;28;91180;-71
2022/03/03 06:46:18;;;;;;;66.88;52.13;;;17.00;50.90;;;;;;4994045;28;90074;-71
2022/03/03 06:48:45;;;;;;;65.82;51.65;;;17.00;50.90;;;;;;4983116;28;90657;-72
2022/03/03 06:51:15;;;;;;;68.53;52.10;;;17.00;50.80;;;;;;4977980;28;90532;-76
2022/03/03 06:53:45;;;;;;;71.85;53.22;;;17.10;51.50;;;;;;4981308;28;91246;-72
2022/03/03 06:56:12;;;;;;;69.05;52.45;;;17.20;51.90;;;;;;4972093;28;90690;-73
2022/03/03 06:58:39;;;;;;;69.18;52.65;;;17.30;51.80;;;;;;4978979;28;89834;-72
2022/03/03 07:01:09;;;;;;;67.97;52.38;;;17.40;51.40;;;;;;4970744;28;90911;-74
2022/03/03 07:03:36;;;;;;;68.90;53.30;;;17.60;51.20;;;;;;4981706;28;90938;-73
2022/03/03 07:06:03;;;;;;;66.78;51.67;;;17.70;50.80;;;;;;4988968;28;90502;-74
2022/03/03 07:08:30;;;;;;;70.40;52.47;;;17.80;50.70;;;;;;4973641;28;90161;-74
2022/03/03 07:10:59;;;;;;;68.95;52.53;;;17.90;50.30;;;;;;4985066;28;89130;-74
2022/03/03 07:13:25;;;;;;;70.47;53.15;;;17.90;50.10;;;;;;4983574;28;90344;-77
2022/03/03 07:15:53;;;;;;;71.30;52.05;;;18.00;50.00;;;;;;4988512;28;90371;-77
2022/03/03 07:18:35;;;;;;;69.57;54.00;;;18.10;50.20;;;;;;4967934;28;91247;-78
2022/03/03 07:21:17;;;;;;;69.25;52.35;;;18.10;50.10;;;;;;4944926;28;91491;-79
2022/03/03 07:23:52;;;;;;;67.45;52.40;;;18.20;50.50;;;;;;4954634;28;90899;-79
2022/03/03 07:26:18;;;;;;;65.97;52.33;;;18.30;50.50;;;;;;4956950;28;89772;-79
2022/03/03 07:28:47;;;;;;;67.60;51.45;;;18.30;50.60;;;;;;4954539;28;91774;-81
2022/03/03 07:31:16;;;;;;;68.78;52.55;;;18.40;50.60;;;;;;4954085;28;90157;-80
2022/03/03 07:34:00;;;;;;;72.55;52.97;;;18.40;50.60;;;;;;4945986;28;90977;-74
2022/03/03 07:36:30;;;;;;;68.28;52.70;;;18.50;50.20;;;;;;4942908;28;89269;-75
2022/03/03 07:38:57;;;;;;;68.35;52.60;;;18.60;50.00;;;;;;4963268;28;90376;-77
2022/03/03 07:41:28;;;;;;;72.72;53.90;;;18.60;49.90;;;;;;4959478;28;89649;-80
2022/03/03 07:44:00;;;;;;;71.45;53.22;;;18.60;49.50;;;;;;4942287;28;91632;-78
2022/03/03 07:46:27;;;;;;;71.60;53.35;;;18.60;49.70;;;;;;4950288;28;90933;-75
2022/03/03 07:48:53;;;;;;;68.57;52.55;;;18.60;49.70;;;;;;4944090;28;91559;-76
2022/03/03 07:51:21;;;;;;;71.63;52.92;;;18.60;49.40;;;;;;4951157;28;91734;-74
2022/03/03 07:53:47;;;;;;;72.50;54.03;;;18.60;49.20;;;;;;4953964;28;89762;-78
2022/03/03 07:56:32;;;;;;;71.72;53.30;;;18.70;49.40;;;;;;4969287;28;90703;-77
2022/03/03 07:59:04;;;;;;;72.78;53.58;;;18.70;49.30;;;;;;4957438;28;91716;-77
2022/03/03 08:01:31;;;;;;;74.32;54.30;;;18.70;49.50;;;;;;4956158;28;90158;-78
2022/03/03 08:04:01;;;;;;;71.20;53.67;;;18.70;49.50;;;;;;4958666;28;89796;-77
2022/03/03 08:06:28;;;;;;;68.82;53.35;;;18.70;49.50;;;;;;4968541;28;89607;-76
2022/03/03 08:08:55;;;;;;;73.20;54.42;;;18.80;49.70;;;;;;4947094;28;92656;-77
2022/03/03 08:11:24;;;;;;;71.82;54.08;;;18.80;49.80;;;;;;4956478;28;90809;-78
2022/03/03 08:13:53;;;;;;;76.43;53.50;;;18.80;50.00;;;;;;4964359;28;90107;-75
2022/03/03 08:16:19;;;;;;;74.03;53.42;;;18.80;51.10;;;;;;4942738;28;89993;-78
2022/03/03 08:18:47;;;;;;;73.80;53.78;;;18.80;50.30;;;;;;4948887;28;91367;-77
2022/03/03 08:21:14;;;;;;;69.00;53.20;;;18.80;50.00;;;;;;4957848;28;91068;-73
2022/03/03 08:23:40;;;;;;;72.47;53.55;;;18.80;50.20;;;;;;4950049;28;90139;-75
2022/03/03 08:26:06;;;;;;;73.47;53.45;;;18.80;50.00;;;;;;4948538;28;92394;-76
2022/03/03 08:28:32;;;;;;;70.32;53.97;;;18.90;50.40;;;;;;4961175;28;90538;-72
2022/03/03 08:31:01;;;;;;;70.15;53.38;;;18.90;50.30;;;;;;4944671;28;91644;-76
2022/03/03 08:34:02;;;;;;;70.18;53.25;;;18.90;50.40;;;;;;4938807;28;92761;-73
2022/03/03 08:36:34;;;;;;;73.93;54.00;;;18.90;50.50;;;;;;4949245;28;95828;-75
2022/03/03 08:39:06;;;;;;;68.88;52.90;;;18.90;50.20;;;;;;4955588;28;93787;-76
2022/03/03 08:41:38;;;;;;;72.30;54.33;;;19.00;50.70;;;;;;4954432;28;92437;-75
2022/03/03 08:44:07;;;;;;;71.88;52.78;;;19.00;50.70;;;;;;4965382;28;90898;-75
2022/03/03 08:46:35;;;;;;;68.38;52.88;;;19.00;50.70;;;;;;4962932;28;90301;-74
2022/03/03 08:49:03;;;;;;;70.78;52.92;;;19.00;50.80;;;;;;4956144;28;90330;-77
2022/03/03 08:51:29;;;;;;;68.50;52.85;;;19.10;50.90;;;;;;4954273;28;91096;-77
2022/03/03 08:53:55;;;;;;;68.97;52.75;;;19.10;51.00;;;;;;4959830;28;90911;-77
2022/03/03 08:56:22;;;;;;;70.47;53.40;;;19.20;51.00;;;;;;4957410;28;89783;-75
2022/03/03 08:58:49;;;;;;;73.60;54.05;;;19.20;50.90;;;;;;4959249;28;93767;-75
2022/03/03 09:01:18;;;;;;;73.63;53.33;;;19.30;50.80;;;;;;4967884;28;90908;-75
2022/03/03 09:03:47;;;;;;;72.07;54.42;;;19.40;50.80;;;;;;4953220;28;90811;-77
2022/03/03 09:06:21;;;;;;;69.93;53.65;;;19.40;50.50;;;;;;4961485;28;90210;-77
2022/03/03 09:08:47;;;;;;;72.05;53.30;;;19.50;50.50;;;;;;4960677;28;90487;-76
2022/03/03 09:11:13;;;;;;;78.90;54.03;;;19.60;50.50;;;;;;4958499;28;90720;-78
2022/03/03 09:13:38;;;;;;;74.22;54.58;;;19.60;50.40;;;;;;4952088;28;89801;-75
2022/03/03 09:16:04;;;;;;;74.10;53.88;;;19.60;50.40;;;;;;4966822;28;90414;-76
2022/03/03 09:18:31;;;;;;;71.90;54.05;;;19.70;50.40;;;;;;4996694;28;92220;-76
2022/03/03 09:20:57;;;;;;;72.50;54.47;;;19.80;50.20;;;;;;5018830;27;91878;-78
2022/03/03 09:23:23;;;;;;;73.55;54.53;;;19.80;50.20;;;;;;5002564;28;91605;-76
2022/03/03 09:25:48;;;;;;;71.05;53.58;;;19.80;50.20;;;;;;5008678;28;89597;-78
2022/03/03 09:28:14;;;;;;;73.00;54.40;;;19.90;50.10;;;;;;4997144;28;90291;-75
2022/03/03 09:30:40;;;;;;;71.15;54.30;;;19.90;49.80;;;;;;5000320;28;89569;-76
2022/03/03 09:33:05;;;;;;;78.70;55.17;;;19.90;49.70;;;;;;4995271;28;90295;-77
2022/03/03 09:35:32;;;;;;;79.38;54.28;;;20.00;49.70;;;;;;4989981;28;90459;-76
2022/03/03 09:37:59;;;;;;;74.43;54.83;;;20.00;49.60;;;;;;5000405;28;91109;-76
2022/03/03 09:40:26;;;;;;;71.03;53.83;;;20.00;49.70;;;;;;4992960;28;91194;-77
2022/03/03 09:43:01;;;;;;;72.63;54.65;;;20.00;49.60;;;;;;4994961;28;89687;-77
2022/03/03 09:45:28;;;;;;;72.93;55.10;;;20.00;49.60;;;;;;5015097;27;89784;-77
2022/03/03 09:47:54;;;;;;;69.97;53.90;;;20.10;49.00;;;;;;5005136;28;91067;-77
2022/03/03 09:50:22;;;;;;;71.38;53.97;;;20.10;49.60;;;;;;4990458;28;96210;-78
2022/03/03 09:52:49;;;;;;;71.68;54.45;;;20.00;49.50;;;;;;5006377;28;90106;-75
2022/03/03 09:55:15;;;;;;;73.75;55.00;;;20.10;50.30;;;;;;5001664;28;89854;-76
2022/03/03 09:57:40;;;;;;;71.53;53.85;;;20.10;49.50;;;;;;4990819;28;91875;-76
2022/03/03 10:00:09;;;;;;;74.45;54.45;;;20.10;49.40;;;;;;4993900;28;89503;-78
2022/03/03 10:02:57;;;;;;;69.95;53.58;;;20.10;49.40;;;;;;5002277;28;89924;-82
2022/03/03 10:05:34;;;;;;;76.22;55.35;;;20.10;49.60;;;;;;4992645;28;89159;-79
2022/03/03 10:08:05;;;;;;;72.18;54.10;;;20.00;49.60;;;;;;4995494;28;89899;-78
2022/03/03 10:10:36;;;;;;;71.90;55.22;;;20.10;49.70;;;;;;4992002;28;90538;-78
2022/03/03 10:13:02;;;;;;;72.30;53.80;;;20.10;49.40;;;;;;5001437;28;92013;-77
2022/03/03 10:15:29;;;;;;;76.03;53.90;;;20.10;49.30;;;;;;4988901;28;91891;-79
2022/03/03 10:18:01;;;;;;;72.47;55.67;;;20.00;49.30;;;;;;4984451;28;91160;-78
2022/03/03 10:20:29;;;;;;;72.80;55.45;;;20.10;49.30;;;;;;4993660;28;90839;-78
2022/03/03 10:22:58;;;;;;;75.00;56.10;;;20.00;48.90;;;;;;4990124;28;90833;-77
2022/03/03 10:25:30;;;;;;;170.15;67.53;;;20.00;48.60;;;;;;4990565;28;94274;-75
2022/03/03 10:27:56;;;;;;;85.13;56.92;;;20.00;48.50;;;;;;4992374;28;91959;-77
2022/03/03 10:30:22;;;;;;;81.07;57.08;;;20.00;48.50;;;;;;5004886;28;91530;-77
2022/03/03 10:32:48;;;;;;;81.32;56.58;;;20.00;48.70;;;;;;4998333;28;89454;-77
2022/03/03 10:35:19;;;;;;;80.75;57.22;;;19.90;48.70;;;;;;5000701;28;89455;-77
2022/03/03 10:37:46;;;;;;;80.82;56.85;;;19.90;48.60;;;;;;4995221;28;92553;-76
2022/03/03 10:40:15;;;;;;;80.45;56.90;;;19.90;48.60;;;;;;4994967;28;90708;-77
2022/03/03 10:42:43;;;;;;;80.55;57.45;;;19.90;48.70;;;;;;4994266;28;90033;-77
2022/03/03 10:45:12;;;;;;;85.90;58.78;;;19.90;48.70;;;;;;4996027;28;90046;-76
2022/03/03 10:47:44;;;;;;;85.47;57.53;;;19.90;48.60;;;;;;4990211;28;91752;-75
2022/03/03 10:50:10;;;;;;;83.53;57.88;;;19.80;48.40;;;;;;5004321;27;90573;-76
2022/03/03 10:52:40;;;;;;;81.97;57.45;;;19.80;48.20;;;;;;4990765;28;89660;-76
2022/03/03 10:55:17;;;;;;;84.85;57.95;;;19.80;48.30;;;;;;4985098;28;92265;-76
2022/03/03 10:57:45;;;;;;;84.03;57.88;;;19.80;48.20;;;;;;4980998;28;89851;-77
2022/03/03 11:00:19;;;;;;;82.53;57.50;;;19.90;48.30;;;;;;4982685;28;89689;-76
2022/03/03 11:02:48;;;;;;;79.32;56.42;;;19.80;48.50;;;;;;4990481;28;92268;-77
2022/03/03 11:05:15;;;;;;;82.75;57.30;;;19.90;48.70;;;;;;4978782;28;90431;-76
2022/03/03 11:07:44;;;;;;;80.28;57.20;;;19.90;48.70;;;;;;4985775;28;93124;-74
2022/03/03 11:10:12;;;;;;;79.72;57.40;;;19.90;48.60;;;;;;4970349;28;95976;-76
2022/03/03 11:12:45;;;;;;;81.43;57.65;;;19.90;48.50;;;;;;4991570;28;89926;-76
2022/03/03 11:15:16;;;;;;;84.68;57.83;;;20.00;48.30;;;;;;4991710;28;89437;-76
2022/03/03 11:17:42;;;;;;;83.32;58.10;;;20.00;47.90;;;;;;4988192;28;92771;-76
2022/03/03 11:20:10;;;;;;;84.30;57.85;;;20.10;47.70;;;;;;4983070;28;89777;-75
2022/03/03 11:22:38;;;;;;;86.60;58.15;;;20.10;47.50;;;;;;4991877;28;89485;-75
2022/03/03 11:25:09;;;;;;;82.57;58.22;;;20.20;47.40;;;;;;4991213;28;90965;-74
2022/03/03 11:27:38;;;;;;;82.53;58.30;;;20.20;47.20;;;;;;4989036;28;90940;-74
2022/03/03 11:30:28;;;;;;;82.10;58.45;;;20.30;47.20;;;;;;4984421;28;90993;-75
2022/03/03 11:33:19;;;;;;;85.95;58.55;;;20.30;47.20;;;;;;4990414;28;90083;-77
2022/03/03 11:36:08;;;;;;;84.25;57.83;;;20.30;47.00;;;;;;4989533;28;90563;-77
2022/03/03 11:38:46;;;;;;;82.68;58.28;;;20.40;46.80;;;;;;4990457;28;90070;-75
2022/03/03 11:41:12;;;;;;;80.38;57.58;;;20.40;46.70;;;;;;4993897;28;93116;-77
2022/03/03 11:43:49;;;;;;;86.13;58.45;;;20.40;46.60;;;;;;4985124;28;90164;-76
2022/03/03 11:46:51;;;;;;;85.22;58.53;;;20.50;46.70;;;;;;5006496;28;89929;-77
2022/03/03 11:49:18;;;;;;;82.35;57.28;;;20.50;46.50;;;;;;4991179;28;90206;-77
2022/03/03 11:51:48;;;;;;;84.03;58.08;;;20.50;46.40;;;;;;4990907;28;91287;-76
2022/03/03 11:54:14;;;;;;;83.80;58.58;;;20.60;46.20;;;;;;4989080;28;90923;-77
2022/03/03 11:57:06;;;;;;;81.15;57.60;;;20.50;46.10;;;;;;4992333;28;89452;-78
2022/03/03 11:59:40;;;;;;;81.75;58.00;;;20.60;46.20;;;;;;4987207;28;90536;-77
2022/03/03 12:02:07;;;;;;;86.35;58.58;;;20.60;46.10;;;;;;4992178;28;91097;-77
2022/03/03 12:04:34;;;;;;;83.53;58.35;;;20.60;46.00;;;;;;4991222;28;90674;-74
2022/03/03 12:07:00;;;;;;;86.07;58.33;;;20.60;46.00;;;;;;5004704;27;90044;-76
2022/03/03 12:09:30;;;;;;;83.63;58.15;;;20.60;45.90;;;;;;4998036;28;90121;-77
2022/03/03 12:12:13;;;;;;;84.28;58.38;;;20.70;45.90;;;;;;4993376;28;89856;-77
2022/03/03 12:14:50;;;;;;;82.45;58.65;;;20.70;46.00;;;;;;4980783;28;89883;-76
2022/03/03 12:17:39;;;;;;;82.22;59.03;;;20.70;46.20;;;;;;4993259;28;89867;-76
2022/03/03 12:20:23;;;;;;;86.00;58.55;;;20.70;46.20;;;;;;4989002;28;90839;-75
2022/03/03 12:23:13;;;;;;;85.07;58.75;;;20.70;46.10;;;;;;4986166;28;91792;-75
2022/03/03 12:25:47;;;;;;;85.22;58.38;;;20.70;45.90;;;;;;4978082;28;90724;-75
2022/03/03 12:28:16;;;;;;;85.05;58.50;;;20.70;45.90;;;;;;4989529;28;89894;-75
2022/03/03 12:30:46;;;;;;;85.15;58.88;;;20.70;46.00;;;;;;4983916;28;92060;-77